KALB/ALB METAR and TAF weather

Enter ICAO airport designator
Station Type Date Time Source
KALB METAR 2018/12/10 19:51 UTC NOAA

KALB 101951Z 29005KT 10SM BKN044 02/M09 A3015 RMK AO2 SLP212 BKN V SCT T00221089


Station Type Date Time Source
KALB Decoded METAR 2018/12/10 19:51 UTC NOAA

ALBANY INTERNATIONAL AIRPORT, NY, United States (KALB) 42-45N 73-48W
Dec 10, 2018 - 02:51 PM EST / 2018.12.10 1951 UTC
Wind: from the WNW (290 degrees) at 6 MPH (5 KT):0
Visibility: 10 mile(s):0
Sky conditions: mostly cloudy
Temperature: 36.0 F (2.2 C)
Dew Point: 16.0 F (-8.9 C)
Relative Humidity: 43%
Pressure (altimeter): 30.15 in. Hg (1020 hPa)
ob: KALB 101951Z 29005KT 10SM BKN044 02/M09 A3015 RMK AO2 SLP212 BKN V SCT T00221089
cycle: 20

Station Type Date Time Source
KALB TAF 2018/12/10 18:42 UTC NOAA

TAF KALB 101740Z 1018/1118 32009KT P6SM BKN040
FM102000 33008KT P6SM SCT040
FM110000 VRB03KT P6SM SKC
FM110300 00000KT P6SM SKC
FM111300 15005KT P6SM BKN250


Example: see airport list